sensor_id;sensor_type;location;lat;lon;timestamp;P1;durP1;ratioP1;P2;durP2;ratioP2
68214;SDS011;55036;52.138;5.236;2022-09-01T00:01:45;4.10;;;2.00;;
68214;SDS011;55036;52.138;5.236;2022-09-01T00:04:15;5.30;;;2.08;;
68214;SDS011;55036;52.138;5.236;2022-09-01T00:06:45;7.60;;;2.00;;
68214;SDS011;55036;52.138;5.236;2022-09-01T00:09:15;5.15;;;1.83;;
68214;SDS011;55036;52.138;5.236;2022-09-01T00:14:16;4.15;;;1.70;;
68214;SDS011;55036;52.138;5.236;2022-09-01T00:17:00;2.53;;;1.90;;
68214;SDS011;55036;52.138;5.236;2022-09-01T00:19:29;4.28;;;1.77;;
68214;SDS011;55036;52.138;5.236;2022-09-01T00:21:58;4.45;;;1.70;;
68214;SDS011;55036;52.138;5.236;2022-09-01T00:24:25;4.07;;;1.65;;
68214;SDS011;55036;52.138;5.236;2022-09-01T00:26:53;2.67;;;1.85;;
68214;SDS011;55036;52.138;5.236;2022-09-01T00:29:22;8.05;;;2.08;;
68214;SDS011;55036;52.138;5.236;2022-09-01T00:31:49;3.80;;;1.90;;
68214;SDS011;55036;52.138;5.236;2022-09-01T00:34:16;3.65;;;1.83;;
68214;SDS011;55036;52.138;5.236;2022-09-01T00:36:44;4.43;;;2.08;;
68214;SDS011;55036;52.138;5.236;2022-09-01T00:39:12;6.70;;;1.90;;
68214;SDS011;55036;52.138;5.236;2022-09-01T00:41:40;3.58;;;1.73;;
68214;SDS011;55036;52.138;5.236;2022-09-01T00:44:11;5.13;;;2.00;;
68214;SDS011;55036;52.138;5.236;2022-09-01T00:46:42;2.78;;;1.50;;
68214;SDS011;55036;52.138;5.236;2022-09-01T00:49:18;4.50;;;1.90;;
68214;SDS011;55036;52.138;5.236;2022-09-01T00:52:52;4.63;;;2.20;;
68214;SDS011;55036;52.138;5.236;2022-09-01T00:54:56;4.53;;;2.10;;
68214;SDS011;55036;52.138;5.236;2022-09-01T00:57:26;4.05;;;2.20;;
68214;SDS011;55036;52.138;5.236;2022-09-01T00:59:58;7.32;;;1.90;;
68214;SDS011;55036;52.138;5.236;2022-09-01T01:02:26;3.17;;;1.88;;
68214;SDS011;55036;52.138;5.236;2022-09-01T01:04:54;4.10;;;2.03;;
68214;SDS011;55036;52.138;5.236;2022-09-01T01:07:24;5.70;;;2.42;;
68214;SDS011;55036;52.138;5.236;2022-09-01T01:09:52;5.32;;;2.03;;
68214;SDS011;55036;52.138;5.236;2022-09-01T01:12:19;4.07;;;2.05;;
68214;SDS011;55036;52.138;5.236;2022-09-01T01:14:46;3.88;;;1.95;;
68214;SDS011;55036;52.138;5.236;2022-09-01T01:17:17;5.13;;;2.20;;
68214;SDS011;55036;52.138;5.236;2022-09-01T01:19:52;3.42;;;1.58;;
68214;SDS011;55036;52.138;5.236;2022-09-01T01:22:50;5.07;;;2.22;;
68214;SDS011;55036;52.138;5.236;2022-09-01T01:25:54;3.95;;;2.13;;
68214;SDS011;55036;52.138;5.236;2022-09-01T01:30:59;4.03;;;2.05;;
68214;SDS011;55036;52.138;5.236;2022-09-01T01:33:32;4.97;;;2.53;;
68214;SDS011;55036;52.138;5.236;2022-09-01T01:36:09;5.97;;;2.13;;
68214;SDS011;55036;52.138;5.236;2022-09-01T01:38:39;4.20;;;2.20;;
68214;SDS011;55036;52.138;5.236;2022-09-01T01:41:08;2.25;;;1.60;;
68214;SDS011;55036;52.138;5.236;2022-09-01T01:43:37;5.63;;;2.55;;
68214;SDS011;55036;52.138;5.236;2022-09-01T01:46:05;2.05;;;1.73;;
68214;SDS011;55036;52.138;5.236;2022-09-01T01:48:34;5.82;;;2.25;;
68214;SDS011;55036;52.138;5.236;2022-09-01T01:51:05;6.88;;;2.25;;
68214;SDS011;55036;52.138;5.236;2022-09-01T01:53:32;7.65;;;1.95;;
68214;SDS011;55036;52.138;5.236;2022-09-01T01:56:00;4.35;;;1.85;;
68214;SDS011;55036;52.138;5.236;2022-09-01T01:58:27;3.22;;;2.20;;
68214;SDS011;55036;52.138;5.236;2022-09-01T02:00:54;6.32;;;2.47;;
68214;SDS011;55036;52.138;5.236;2022-09-01T02:03:23;3.53;;;2.20;;
68214;SDS011;55036;52.138;5.236;2022-09-01T02:05:54;4.38;;;2.30;;
68214;SDS011;55036;52.138;5.236;2022-09-01T02:08:22;4.80;;;2.60;;
68214;SDS011;55036;52.138;5.236;2022-09-01T02:10:52;4.63;;;2.30;;
68214;SDS011;55036;52.138;5.236;2022-09-01T02:13:20;5.70;;;2.53;;
68214;SDS011;55036;52.138;5.236;2022-09-01T02:16:01;3.80;;;2.50;;
68214;SDS011;55036;52.138;5.236;2022-09-01T02:18:33;5.00;;;2.65;;
68214;SDS011;55036;52.138;5.236;2022-09-01T02:21:03;6.20;;;2.58;;
68214;SDS011;55036;52.138;5.236;2022-09-01T02:23:41;4.20;;;1.95;;
68214;SDS011;55036;52.138;5.236;2022-09-01T02:26:08;7.65;;;2.20;;
68214;SDS011;55036;52.138;5.236;2022-09-01T02:28:43;2.92;;;2.05;;
68214;SDS011;55036;52.138;5.236;2022-09-01T02:31:20;5.10;;;2.25;;
68214;SDS011;55036;52.138;5.236;2022-09-01T02:33:48;3.70;;;2.17;;
68214;SDS011;55036;52.138;5.236;2022-09-01T02:36:15;6.82;;;2.20;;
68214;SDS011;55036;52.138;5.236;2022-09-01T02:38:44;6.40;;;2.55;;
68214;SDS011;55036;52.138;5.236;2022-09-01T02:41:20;4.03;;;2.40;;
68214;SDS011;55036;52.138;5.236;2022-09-01T02:43:49;4.90;;;2.13;;
68214;SDS011;55036;52.138;5.236;2022-09-01T02:46:16;3.88;;;2.20;;
68214;SDS011;55036;52.138;5.236;2022-09-01T02:48:45;3.78;;;2.15;;
68214;SDS011;55036;52.138;5.236;2022-09-01T02:51:22;3.90;;;2.53;;
68214;SDS011;55036;52.138;5.236;2022-09-01T02:53:50;5.80;;;2.60;;
68214;SDS011;55036;52.138;5.236;2022-09-01T02:56:18;4.28;;;2.60;;
68214;SDS011;55036;52.138;5.236;2022-09-01T02:58:50;3.67;;;2.25;;
68214;SDS011;55036;52.138;5.236;2022-09-01T03:01:20;5.05;;;2.13;;
68214;SDS011;55036;52.138;5.236;2022-09-01T03:03:56;5.72;;;2.50;;
68214;SDS011;55036;52.138;5.236;2022-09-01T03:06:25;4.55;;;2.45;;
68214;SDS011;55036;52.138;5.236;2022-09-01T03:08:55;5.68;;;2.47;;
68214;SDS011;55036;52.138;5.236;2022-09-01T03:11:26;4.95;;;2.17;;
68214;SDS011;55036;52.138;5.236;2022-09-01T03:13:55;5.97;;;2.45;;
68214;SDS011;55036;52.138;5.236;2022-09-01T03:16:22;4.82;;;2.10;;
68214;SDS011;55036;52.138;5.236;2022-09-01T03:18:49;5.47;;;2.35;;
68214;SDS011;55036;52.138;5.236;2022-09-01T03:21:17;5.70;;;2.28;;
68214;SDS011;55036;52.138;5.236;2022-09-01T03:23:45;6.63;;;2.35;;
68214;SDS011;55036;52.138;5.236;2022-09-01T03:26:13;3.95;;;2.42;;
68214;SDS011;55036;52.138;5.236;2022-09-01T03:28:44;4.65;;;2.10;;
68214;SDS011;55036;52.138;5.236;2022-09-01T03:31:11;3.85;;;2.30;;
68214;SDS011;55036;52.138;5.236;2022-09-01T03:33:38;3.42;;;2.58;;
68214;SDS011;55036;52.138;5.236;2022-09-01T03:36:04;8.27;;;2.50;;
68214;SDS011;55036;52.138;5.236;2022-09-01T03:38:40;5.15;;;2.72;;
68214;SDS011;55036;52.138;5.236;2022-09-01T03:41:09;4.00;;;2.40;;
68214;SDS011;55036;52.138;5.236;2022-09-01T03:43:39;2.78;;;2.00;;
68214;SDS011;55036;52.138;5.236;2022-09-01T03:46:12;6.25;;;2.53;;
68214;SDS011;55036;52.138;5.236;2022-09-01T03:48:48;4.07;;;2.40;;
68214;SDS011;55036;52.138;5.236;2022-09-01T03:51:17;5.15;;;2.50;;
68214;SDS011;55036;52.138;5.236;2022-09-01T03:53:46;4.15;;;2.53;;
68214;SDS011;55036;52.138;5.236;2022-09-01T03:56:12;5.40;;;2.60;;
68214;SDS011;55036;52.138;5.236;2022-09-01T03:58:40;6.13;;;2.42;;
68214;SDS011;55036;52.138;5.236;2022-09-01T04:01:13;3.58;;;2.10;;
68214;SDS011;55036;52.138;5.236;2022-09-01T04:03:41;4.30;;;2.85;;
68214;SDS011;55036;52.138;5.236;2022-09-01T04:06:10;4.60;;;2.80;;
68214;SDS011;55036;52.138;5.236;2022-09-01T04:08:37;3.67;;;2.40;;
68214;SDS011;55036;52.138;5.236;2022-09-01T04:11:13;4.03;;;2.50;;
68214;SDS011;55036;52.138;5.236;2022-09-01T04:13:43;4.25;;;2.80;;
68214;SDS011;55036;52.138;5.236;2022-09-01T04:16:31;5.88;;;2.88;;
68214;SDS011;55036;52.138;5.236;2022-09-01T04:19:19;6.25;;;3.17;;
68214;SDS011;55036;52.138;5.236;2022-09-01T04:21:53;4.45;;;2.60;;
68214;SDS011;55036;52.138;5.236;2022-09-01T04:24:29;9.05;;;3.63;;
68214;SDS011;55036;52.138;5.236;2022-09-01T04:26:58;4.47;;;2.90;;
68214;SDS011;55036;52.138;5.236;2022-09-01T04:29:29;4.25;;;3.03;;
68214;SDS011;55036;52.138;5.236;2022-09-01T04:31:59;4.60;;;2.70;;
68214;SDS011;55036;52.138;5.236;2022-09-01T04:34:29;5.18;;;3.05;;
68214;SDS011;55036;52.138;5.236;2022-09-01T04:37:06;4.57;;;2.80;;
68214;SDS011;55036;52.138;5.236;2022-09-01T04:39:38;6.45;;;2.65;;
68214;SDS011;55036;52.138;5.236;2022-09-01T04:42:18;7.00;;;3.00;;
68214;SDS011;55036;52.138;5.236;2022-09-01T04:44:49;4.05;;;2.70;;
68214;SDS011;55036;52.138;5.236;2022-09-01T04:47:18;3.78;;;2.80;;
68214;SDS011;55036;52.138;5.236;2022-09-01T04:50:01;6.95;;;3.22;;
68214;SDS011;55036;52.138;5.236;2022-09-01T04:52:28;8.20;;;3.45;;
68214;SDS011;55036;52.138;5.236;2022-09-01T04:54:57;5.10;;;3.08;;
68214;SDS011;55036;52.138;5.236;2022-09-01T04:57:23;7.13;;;3.00;;
68214;SDS011;55036;52.138;5.236;2022-09-01T04:59:53;8.27;;;3.22;;
68214;SDS011;55036;52.138;5.236;2022-09-01T05:02:21;4.93;;;2.67;;
68214;SDS011;55036;52.138;5.236;2022-09-01T05:04:52;5.57;;;2.92;;
68214;SDS011;55036;52.138;5.236;2022-09-01T05:07:19;8.52;;;3.63;;
68214;SDS011;55036;52.138;5.236;2022-09-01T05:09:46;4.53;;;2.92;;
68214;SDS011;55036;52.138;5.236;2022-09-01T05:12:13;6.72;;;3.00;;
68214;SDS011;55036;52.138;5.236;2022-09-01T05:14:43;5.47;;;3.03;;
68214;SDS011;55036;52.138;5.236;2022-09-01T05:17:13;5.50;;;2.80;;
68214;SDS011;55036;52.138;5.236;2022-09-01T05:19:43;4.60;;;2.92;;
68214;SDS011;55036;52.138;5.236;2022-09-01T05:22:13;3.95;;;2.60;;
68214;SDS011;55036;52.138;5.236;2022-09-01T05:24:41;8.85;;;3.13;;
68214;SDS011;55036;52.138;5.236;2022-09-01T05:27:08;4.75;;;3.10;;
68214;SDS011;55036;52.138;5.236;2022-09-01T05:29:35;5.85;;;3.08;;
68214;SDS011;55036;52.138;5.236;2022-09-01T05:32:03;4.70;;;2.97;;
68214;SDS011;55036;52.138;5.236;2022-09-01T05:34:35;4.25;;;2.90;;
68214;SDS011;55036;52.138;5.236;2022-09-01T05:37:04;6.00;;;2.88;;
68214;SDS011;55036;52.138;5.236;2022-09-01T05:39:33;5.55;;;2.88;;
68214;SDS011;55036;52.138;5.236;2022-09-01T05:42:03;5.18;;;3.00;;
68214;SDS011;55036;52.138;5.236;2022-09-01T05:44:33;4.38;;;2.75;;
68214;SDS011;55036;52.138;5.236;2022-09-01T05:47:01;5.78;;;2.70;;
68214;SDS011;55036;52.138;5.236;2022-09-01T05:49:28;5.43;;;2.53;;
68214;SDS011;55036;52.138;5.236;2022-09-01T05:51:58;3.45;;;2.65;;
68214;SDS011;55036;52.138;5.236;2022-09-01T05:54:25;4.82;;;2.53;;
68214;SDS011;55036;52.138;5.236;2022-09-01T05:56:53;5.43;;;2.60;;
68214;SDS011;55036;52.138;5.236;2022-09-01T05:59:22;5.57;;;2.30;;
68214;SDS011;55036;52.138;5.236;2022-09-01T06:01:51;5.38;;;2.90;;
68214;SDS011;55036;52.138;5.236;2022-09-01T06:04:19;6.10;;;2.50;;
68214;SDS011;55036;52.138;5.236;2022-09-01T06:06:47;3.05;;;2.15;;
68214;SDS011;55036;52.138;5.236;2022-09-01T06:09:35;5.60;;;2.63;;
68214;SDS011;55036;52.138;5.236;2022-09-01T06:12:04;6.38;;;2.50;;
68214;SDS011;55036;52.138;5.236;2022-09-01T06:14:31;7.00;;;2.50;;
68214;SDS011;55036;52.138;5.236;2022-09-01T06:16:58;6.28;;;2.38;;
68214;SDS011;55036;52.138;5.236;2022-09-01T06:19:25;2.85;;;2.10;;
68214;SDS011;55036;52.138;5.236;2022-09-01T06:21:52;4.80;;;2.72;;
68214;SDS011;55036;52.138;5.236;2022-09-01T06:24:20;3.63;;;2.47;;
68214;SDS011;55036;52.138;5.236;2022-09-01T06:26:47;10.70;;;2.38;;
68214;SDS011;55036;52.138;5.236;2022-09-01T06:29:14;3.70;;;2.22;;
68214;SDS011;55036;52.138;5.236;2022-09-01T06:31:40;3.95;;;2.38;;
68214;SDS011;55036;52.138;5.236;2022-09-01T06:34:09;6.82;;;2.40;;
68214;SDS011;55036;52.138;5.236;2022-09-01T06:36:42;7.63;;;2.60;;
68214;SDS011;55036;52.138;5.236;2022-09-01T06:39:10;3.00;;;2.20;;
68214;SDS011;55036;52.138;5.236;2022-09-01T06:41:45;4.93;;;2.70;;
68214;SDS011;55036;52.138;5.236;2022-09-01T06:44:15;4.25;;;2.38;;
68214;SDS011;55036;52.138;5.236;2022-09-01T06:46:48;4.07;;;2.20;;
68214;SDS011;55036;52.138;5.236;2022-09-01T06:49:19;6.53;;;2.67;;
68214;SDS011;55036;52.138;5.236;2022-09-01T06:51:47;4.00;;;1.55;;
68214;SDS011;55036;52.138;5.236;2022-09-01T06:54:16;5.85;;;2.67;;
68214;SDS011;55036;52.138;5.236;2022-09-01T06:56:46;3.88;;;2.38;;
68214;SDS011;55036;52.138;5.236;2022-09-01T06:59:18;4.38;;;2.25;;
68214;SDS011;55036;52.138;5.236;2022-09-01T07:01:45;4.00;;;2.28;;
68214;SDS011;55036;52.138;5.236;2022-09-01T07:04:14;5.00;;;2.10;;
68214;SDS011;55036;52.138;5.236;2022-09-01T07:06:46;5.13;;;2.03;;
68214;SDS011;55036;52.138;5.236;2022-09-01T07:09:26;4.53;;;1.67;;
68214;SDS011;55036;52.138;5.236;2022-09-01T07:12:14;2.72;;;1.60;;
68214;SDS011;55036;52.138;5.236;2022-09-01T07:14:53;3.88;;;1.40;;
68214;SDS011;55036;52.138;5.236;2022-09-01T07:17:40;3.50;;;1.58;;
68214;SDS011;55036;52.138;5.236;2022-09-01T07:20:08;5.63;;;1.63;;
68214;SDS011;55036;52.138;5.236;2022-09-01T07:22:53;2.33;;;1.27;;
68214;SDS011;55036;52.138;5.236;2022-09-01T07:25:31;3.85;;;1.80;;
68214;SDS011;55036;52.138;5.236;2022-09-01T07:28:21;2.53;;;1.10;;
68214;SDS011;55036;52.138;5.236;2022-09-01T07:31:01;2.80;;;1.48;;
68214;SDS011;55036;52.138;5.236;2022-09-01T07:33:51;3.90;;;1.42;;
68214;SDS011;55036;52.138;5.236;2022-09-01T07:36:40;2.63;;;1.65;;
68214;SDS011;55036;52.138;5.236;2022-09-01T07:39:28;3.15;;;1.35;;
68214;SDS011;55036;52.138;5.236;2022-09-01T07:42:17;2.63;;;1.33;;
68214;SDS011;55036;52.138;5.236;2022-09-01T07:45:08;1.83;;;1.40;;
68214;SDS011;55036;52.138;5.236;2022-09-01T07:47:54;3.15;;;1.40;;
68214;SDS011;55036;52.138;5.236;2022-09-01T07:50:21;1.85;;;1.10;;
68214;SDS011;55036;52.138;5.236;2022-09-01T07:53:09;2.45;;;1.10;;
68214;SDS011;55036;52.138;5.236;2022-09-01T07:55:41;2.95;;;1.13;;
68214;SDS011;55036;52.138;5.236;2022-09-01T08:00:37;3.17;;;1.08;;
68214;SDS011;55036;52.138;5.236;2022-09-01T08:03:05;4.93;;;1.40;;
68214;SDS011;55036;52.138;5.236;2022-09-01T08:05:32;3.03;;;1.25;;
68214;SDS011;55036;52.138;5.236;2022-09-01T08:07:59;3.38;;;1.27;;
68214;SDS011;55036;52.138;5.236;2022-09-01T08:10:26;5.32;;;1.27;;
68214;SDS011;55036;52.138;5.236;2022-09-01T08:12:53;1.52;;;1.05;;
68214;SDS011;55036;52.138;5.236;2022-09-01T08:15:22;2.97;;;1.20;;
68214;SDS011;55036;52.138;5.236;2022-09-01T08:18:09;3.83;;;1.23;;
68214;SDS011;55036;52.138;5.236;2022-09-01T08:20:39;3.88;;;1.17;;
68214;SDS011;55036;52.138;5.236;2022-09-01T08:23:12;4.13;;;1.52;;
68214;SDS011;55036;52.138;5.236;2022-09-01T08:25:44;2.78;;;1.00;;
68214;SDS011;55036;52.138;5.236;2022-09-01T08:28:13;4.70;;;1.13;;
68214;SDS011;55036;52.138;5.236;2022-09-01T08:30:41;3.33;;;1.20;;
68214;SDS011;55036;52.138;5.236;2022-09-01T08:33:17;2.25;;;1.05;;
68214;SDS011;55036;52.138;5.236;2022-09-01T08:35:46;3.30;;;1.05;;
68214;SDS011;55036;52.138;5.236;2022-09-01T08:38:14;3.45;;;1.23;;
68214;SDS011;55036;52.138;5.236;2022-09-01T08:40:41;4.25;;;1.00;;
68214;SDS011;55036;52.138;5.236;2022-09-01T08:45:56;1.00;;;0.82;;
68214;SDS011;55036;52.138;5.236;2022-09-01T08:48:36;4.82;;;1.00;;
68214;SDS011;55036;52.138;5.236;2022-09-01T08:51:37;4.05;;;1.08;;
68214;SDS011;55036;52.138;5.236;2022-09-01T08:54:21;3.10;;;0.80;;
68214;SDS011;55036;52.138;5.236;2022-09-01T08:56:56;1.98;;;0.90;;
68214;SDS011;55036;52.138;5.236;2022-09-01T08:59:27;1.50;;;1.00;;
68214;SDS011;55036;52.138;5.236;2022-09-01T09:02:04;2.42;;;0.90;;
68214;SDS011;55036;52.138;5.236;2022-09-01T09:10:06;4.50;;;0.85;;
68214;SDS011;55036;52.138;5.236;2022-09-01T09:13:00;3.85;;;0.98;;
68214;SDS011;55036;52.138;5.236;2022-09-01T09:15:39;3.33;;;0.98;;
68214;SDS011;55036;52.138;5.236;2022-09-01T09:21:11;1.25;;;0.90;;
68214;SDS011;55036;52.138;5.236;2022-09-01T09:23:42;1.92;;;1.17;;
68214;SDS011;55036;52.138;5.236;2022-09-01T09:26:13;2.40;;;0.73;;
68214;SDS011;55036;52.138;5.236;2022-09-01T09:28:42;3.65;;;1.13;;
68214;SDS011;55036;52.138;5.236;2022-09-01T09:31:24;10.73;;;1.27;;
68214;SDS011;55036;52.138;5.236;2022-09-01T09:34:01;3.47;;;0.95;;
68214;SDS011;55036;52.138;5.236;2022-09-01T09:36:34;2.33;;;0.88;;
68214;SDS011;55036;52.138;5.236;2022-09-01T09:39:04;4.60;;;1.20;;
68214;SDS011;55036;52.138;5.236;2022-09-01T09:41:42;3.67;;;0.93;;
68214;SDS011;55036;52.138;5.236;2022-09-01T09:44:25;2.88;;;0.68;;
68214;SDS011;55036;52.138;5.236;2022-09-01T09:46:55;2.20;;;0.93;;
68214;SDS011;55036;52.138;5.236;2022-09-01T09:49:28;3.08;;;0.80;;
68214;SDS011;55036;52.138;5.236;2022-09-01T09:59:40;1.55;;;0.75;;
68214;SDS011;55036;52.138;5.236;2022-09-01T10:02:32;2.15;;;0.80;;
68214;SDS011;55036;52.138;5.236;2022-09-01T10:05:00;1.00;;;0.50;;
68214;SDS011;55036;52.138;5.236;2022-09-01T10:07:47;3.05;;;0.77;;
68214;SDS011;55036;52.138;5.236;2022-09-01T10:10:29;2.05;;;0.70;;
68214;SDS011;55036;52.138;5.236;2022-09-01T10:13:05;2.42;;;0.80;;
68214;SDS011;55036;52.138;5.236;2022-09-01T10:15:35;1.13;;;0.70;;
68214;SDS011;55036;52.138;5.236;2022-09-01T10:18:05;1.63;;;0.80;;
68214;SDS011;55036;52.138;5.236;2022-09-01T10:20:49;4.43;;;0.75;;
68214;SDS011;55036;52.138;5.236;2022-09-01T10:23:21;1.20;;;0.70;;
68214;SDS011;55036;52.138;5.236;2022-09-01T10:25:54;5.70;;;0.68;;
68214;SDS011;55036;52.138;5.236;2022-09-01T10:28:31;1.48;;;0.90;;
68214;SDS011;55036;52.138;5.236;2022-09-01T10:31:02;2.45;;;0.65;;
68214;SDS011;55036;52.138;5.236;2022-09-01T10:33:29;5.15;;;0.77;;
68214;SDS011;55036;52.138;5.236;2022-09-01T10:35:56;2.50;;;0.82;;
68214;SDS011;55036;52.138;5.236;2022-09-01T10:38:25;4.80;;;0.75;;
68214;SDS011;55036;52.138;5.236;2022-09-01T10:40:55;5.15;;;0.90;;
68214;SDS011;55036;52.138;5.236;2022-09-01T10:43:44;1.85;;;1.00;;
68214;SDS011;55036;52.138;5.236;2022-09-01T10:49:56;4.05;;;0.85;;
68214;SDS011;55036;52.138;5.236;2022-09-01T10:52:26;2.70;;;0.80;;
68214;SDS011;55036;52.138;5.236;2022-09-01T11:00:45;2.33;;;1.10;;
68214;SDS011;55036;52.138;5.236;2022-09-01T11:03:44;1.25;;;0.90;;
68214;SDS011;55036;52.138;5.236;2022-09-01T11:06:32;4.35;;;0.95;;
68214;SDS011;55036;52.138;5.236;2022-09-01T11:09:37;6.95;;;0.85;;
68214;SDS011;55036;52.138;5.236;2022-09-01T11:14:59;2.10;;;0.80;;
68214;SDS011;55036;52.138;5.236;2022-09-01T11:17:38;3.13;;;0.80;;
68214;SDS011;55036;52.138;5.236;2022-09-01T11:25:47;1.98;;;0.63;;
68214;SDS011;55036;52.138;5.236;2022-09-01T11:28:37;4.40;;;1.08;;
68214;SDS011;55036;52.138;5.236;2022-09-01T11:39:08;4.88;;;0.90;;
68214;SDS011;55036;52.138;5.236;2022-09-01T11:47:35;1.92;;;0.80;;
68214;SDS011;55036;52.138;5.236;2022-09-01T11:52:52;2.30;;;0.90;;
68214;SDS011;55036;52.138;5.236;2022-09-01T11:58:00;2.33;;;0.82;;
68214;SDS011;55036;52.138;5.236;2022-09-01T12:00:29;1.70;;;0.90;;
68214;SDS011;55036;52.138;5.236;2022-09-01T12:05:51;3.58;;;0.93;;
68214;SDS011;55036;52.138;5.236;2022-09-01T12:08:26;4.70;;;0.93;;
68214;SDS011;55036;52.138;5.236;2022-09-01T12:11:39;0.98;;;0.60;;
68214;SDS011;55036;52.138;5.236;2022-09-01T12:13:54;0.47;;;0.40;;
68214;SDS011;55036;52.138;5.236;2022-09-01T12:16:24;4.75;;;0.85;;
68214;SDS011;55036;52.138;5.236;2022-09-01T12:18:53;2.20;;;0.73;;
68214;SDS011;55036;52.138;5.236;2022-09-01T12:24:15;1.40;;;0.60;;
68214;SDS011;55036;52.138;5.236;2022-09-01T12:26:45;1.02;;;0.65;;
68214;SDS011;55036;52.138;5.236;2022-09-01T12:29:13;2.08;;;0.73;;
68214;SDS011;55036;52.138;5.236;2022-09-01T12:31:42;1.02;;;0.60;;
68214;SDS011;55036;52.138;5.236;2022-09-01T12:39:48;2.47;;;0.65;;
68214;SDS011;55036;52.138;5.236;2022-09-01T12:52:34;3.28;;;0.90;;
68214;SDS011;55036;52.138;5.236;2022-09-01T12:55:19;1.17;;;0.80;;
68214;SDS011;55036;52.138;5.236;2022-09-01T12:58:11;1.02;;;0.70;;
68214;SDS011;55036;52.138;5.236;2022-09-01T13:00:57;2.70;;;0.80;;
68214;SDS011;55036;52.138;5.236;2022-09-01T13:03:24;0.93;;;0.70;;
68214;SDS011;55036;52.138;5.236;2022-09-01T13:05:58;1.80;;;0.90;;
68214;SDS011;55036;52.138;5.236;2022-09-01T13:08:30;0.90;;;0.80;;
68214;SDS011;55036;52.138;5.236;2022-09-01T13:11:05;2.10;;;0.98;;
68214;SDS011;55036;52.138;5.236;2022-09-01T13:13:36;6.55;;;0.77;;
68214;SDS011;55036;52.138;5.236;2022-09-01T13:16:04;2.20;;;0.68;;
68214;SDS011;55036;52.138;5.236;2022-09-01T13:18:39;2.92;;;0.77;;
68214;SDS011;55036;52.138;5.236;2022-09-01T13:21:28;7.18;;;1.15;;
68214;SDS011;55036;52.138;5.236;2022-09-01T13:23:55;1.77;;;0.73;;
68214;SDS011;55036;52.138;5.236;2022-09-01T13:26:23;4.15;;;0.80;;
68214;SDS011;55036;52.138;5.236;2022-09-01T13:28:51;0.77;;;0.70;;
68214;SDS011;55036;52.138;5.236;2022-09-01T13:31:18;1.17;;;0.80;;
68214;SDS011;55036;52.138;5.236;2022-09-01T13:34:01;3.17;;;0.73;;
68214;SDS011;55036;52.138;5.236;2022-09-01T13:36:48;0.68;;;0.65;;
68214;SDS011;55036;52.138;5.236;2022-09-01T13:39:17;1.85;;;0.82;;
68214;SDS011;55036;52.138;5.236;2022-09-01T13:41:45;3.90;;;0.70;;
68214;SDS011;55036;52.138;5.236;2022-09-01T13:44:13;3.17;;;0.80;;
68214;SDS011;55036;52.138;5.236;2022-09-01T13:46:42;3.10;;;0.88;;
68214;SDS011;55036;52.138;5.236;2022-09-01T13:49:30;1.02;;;0.73;;
68214;SDS011;55036;52.138;5.236;2022-09-01T13:52:17;5.10;;;0.90;;
68214;SDS011;55036;52.138;5.236;2022-09-01T13:54:44;3.13;;;1.00;;
68214;SDS011;55036;52.138;5.236;2022-09-01T13:57:12;5.28;;;0.85;;
68214;SDS011;55036;52.138;5.236;2022-09-01T13:59:41;2.08;;;0.80;;
68214;SDS011;55036;52.138;5.236;2022-09-01T14:02:08;3.83;;;0.88;;
68214;SDS011;55036;52.138;5.236;2022-09-01T14:04:36;3.00;;;0.80;;
68214;SDS011;55036;52.138;5.236;2022-09-01T14:07:02;3.25;;;0.65;;
68214;SDS011;55036;52.138;5.236;2022-09-01T14:09:29;2.25;;;0.77;;
68214;SDS011;55036;52.138;5.236;2022-09-01T14:11:56;3.65;;;0.85;;
68214;SDS011;55036;52.138;5.236;2022-09-01T14:14:23;1.23;;;0.93;;
68214;SDS011;55036;52.138;5.236;2022-09-01T14:16:50;1.20;;;0.70;;
68214;SDS011;55036;52.138;5.236;2022-09-01T14:19:20;2.17;;;0.82;;
68214;SDS011;55036;52.138;5.236;2022-09-01T14:21:48;4.35;;;1.00;;
68214;SDS011;55036;52.138;5.236;2022-09-01T14:24:14;2.85;;;0.75;;
68214;SDS011;55036;52.138;5.236;2022-09-01T14:26:45;1.65;;;0.88;;
68214;SDS011;55036;52.138;5.236;2022-09-01T14:29:13;5.50;;;0.93;;
68214;SDS011;55036;52.138;5.236;2022-09-01T14:31:40;1.55;;;0.90;;
68214;SDS011;55036;52.138;5.236;2022-09-01T14:34:08;3.28;;;0.85;;
68214;SDS011;55036;52.138;5.236;2022-09-01T14:36:37;1.85;;;1.10;;
68214;SDS011;55036;52.138;5.236;2022-09-01T14:39:04;1.38;;;1.08;;
68214;SDS011;55036;52.138;5.236;2022-09-01T14:41:30;1.92;;;1.00;;
68214;SDS011;55036;52.138;5.236;2022-09-01T14:43:57;3.67;;;1.02;;
68214;SDS011;55036;52.138;5.236;2022-09-01T14:46:28;2.55;;;0.90;;
68214;SDS011;55036;52.138;5.236;2022-09-01T14:48:56;2.97;;;0.85;;
68214;SDS011;55036;52.138;5.236;2022-09-01T14:51:25;2.47;;;1.17;;
68214;SDS011;55036;52.138;5.236;2022-09-01T14:54:13;4.97;;;1.10;;
68214;SDS011;55036;52.138;5.236;2022-09-01T14:56:39;1.35;;;0.70;;
68214;SDS011;55036;52.138;5.236;2022-09-01T14:59:07;2.58;;;0.98;;
68214;SDS011;55036;52.138;5.236;2022-09-01T15:01:34;1.73;;;1.00;;
68214;SDS011;55036;52.138;5.236;2022-09-01T15:04:01;2.55;;;0.80;;
68214;SDS011;55036;52.138;5.236;2022-09-01T15:06:28;1.38;;;0.80;;
68214;SDS011;55036;52.138;5.236;2022-09-01T15:08:54;1.83;;;0.90;;
68214;SDS011;55036;52.138;5.236;2022-09-01T15:11:21;2.58;;;0.85;;
68214;SDS011;55036;52.138;5.236;2022-09-01T15:13:48;2.65;;;0.75;;
68214;SDS011;55036;52.138;5.236;2022-09-01T15:16:19;4.30;;;1.20;;
68214;SDS011;55036;52.138;5.236;2022-09-01T15:18:47;2.63;;;0.90;;
68214;SDS011;55036;52.138;5.236;2022-09-01T15:21:27;1.85;;;0.70;;
68214;SDS011;55036;52.138;5.236;2022-09-01T15:23:57;2.78;;;1.00;;
68214;SDS011;55036;52.138;5.236;2022-09-01T15:26:29;3.60;;;0.88;;
68214;SDS011;55036;52.138;5.236;2022-09-01T15:28:57;2.55;;;0.90;;
68214;SDS011;55036;52.138;5.236;2022-09-01T15:31:24;6.28;;;1.05;;
68214;SDS011;55036;52.138;5.236;2022-09-01T15:33:59;1.73;;;0.80;;
68214;SDS011;55036;52.138;5.236;2022-09-01T15:36:28;3.25;;;0.90;;
68214;SDS011;55036;52.138;5.236;2022-09-01T15:38:56;0.88;;;0.80;;
68214;SDS011;55036;52.138;5.236;2022-09-01T15:41:25;3.45;;;0.98;;
68214;SDS011;55036;52.138;5.236;2022-09-01T15:43:54;1.42;;;0.82;;
68214;SDS011;55036;52.138;5.236;2022-09-01T15:46:21;4.30;;;1.10;;
68214;SDS011;55036;52.138;5.236;2022-09-01T15:48:48;3.47;;;0.85;;
68214;SDS011;55036;52.138;5.236;2022-09-01T15:53:51;3.85;;;0.93;;
68214;SDS011;55036;52.138;5.236;2022-09-01T15:56:20;1.35;;;0.93;;
68214;SDS011;55036;52.138;5.236;2022-09-01T15:58:48;3.67;;;0.90;;
68214;SDS011;55036;52.138;5.236;2022-09-01T16:01:27;1.40;;;0.80;;
68214;SDS011;55036;52.138;5.236;2022-09-01T16:03:55;1.42;;;0.88;;
68214;SDS011;55036;52.138;5.236;2022-09-01T16:06:22;1.05;;;0.70;;
68214;SDS011;55036;52.138;5.236;2022-09-01T16:08:49;4.20;;;1.23;;
68214;SDS011;55036;52.138;5.236;2022-09-01T16:11:16;1.77;;;0.90;;
68214;SDS011;55036;52.138;5.236;2022-09-01T16:13:42;1.38;;;1.00;;
68214;SDS011;55036;52.138;5.236;2022-09-01T16:18:47;3.95;;;1.08;;
68214;SDS011;55036;52.138;5.236;2022-09-01T16:21:32;2.25;;;0.80;;
68214;SDS011;55036;52.138;5.236;2022-09-01T16:24:07;1.90;;;1.38;;
68214;SDS011;55036;52.138;5.236;2022-09-01T16:26:37;3.60;;;0.95;;
68214;SDS011;55036;52.138;5.236;2022-09-01T16:32:10;2.40;;;0.77;;
68214;SDS011;55036;52.138;5.236;2022-09-01T16:34:37;2.67;;;1.00;;
68214;SDS011;55036;52.138;5.236;2022-09-01T16:37:20;3.03;;;0.90;;
68214;SDS011;55036;52.138;5.236;2022-09-01T16:48:35;3.67;;;1.00;;
68214;SDS011;55036;52.138;5.236;2022-09-01T16:56:16;2.10;;;0.80;;
68214;SDS011;55036;52.138;5.236;2022-09-01T17:01:53;7.07;;;1.33;;
68214;SDS011;55036;52.138;5.236;2022-09-01T17:07:24;7.50;;;0.98;;
68214;SDS011;55036;52.138;5.236;2022-09-01T17:12:46;1.73;;;0.75;;
68214;SDS011;55036;52.138;5.236;2022-09-01T17:15:30;4.28;;;0.95;;